sensor_id;sensor_type;location;lat;lon;timestamp;P1;durP1;ratioP1;P2;durP2;ratioP2
8293;SDS011;4185;41.506;24.938;2023-06-10T00:02:11;4.83;;;3.40;;
8293;SDS011;4185;41.506;24.938;2023-06-10T00:04:38;5.60;;;3.60;;
8293;SDS011;4185;41.506;24.938;2023-06-10T00:07:06;5.07;;;3.63;;
8293;SDS011;4185;41.506;24.938;2023-06-10T00:09:35;3.33;;;3.03;;
8293;SDS011;4185;41.506;24.938;2023-06-10T00:12:02;4.53;;;3.43;;
8293;SDS011;4185;41.506;24.938;2023-06-10T00:14:30;3.87;;;3.50;;
8293;SDS011;4185;41.506;24.938;2023-06-10T00:16:57;6.33;;;3.70;;
8293;SDS011;4185;41.506;24.938;2023-06-10T00:19:24;4.47;;;3.40;;
8293;SDS011;4185;41.506;24.938;2023-06-10T00:21:55;3.73;;;3.23;;
8293;SDS011;4185;41.506;24.938;2023-06-10T00:24:23;4.37;;;3.80;;
8293;SDS011;4185;41.506;24.938;2023-06-10T00:26:50;4.37;;;3.57;;
8293;SDS011;4185;41.506;24.938;2023-06-10T00:29:17;4.00;;;3.60;;
8293;SDS011;4185;41.506;24.938;2023-06-10T00:31:44;4.67;;;3.57;;
8293;SDS011;4185;41.506;24.938;2023-06-10T00:34:11;5.13;;;2.97;;
8293;SDS011;4185;41.506;24.938;2023-06-10T00:36:38;4.30;;;3.40;;
8293;SDS011;4185;41.506;24.938;2023-06-10T00:39:04;6.97;;;3.67;;
8293;SDS011;4185;41.506;24.938;2023-06-10T00:41:33;4.20;;;3.53;;
8293;SDS011;4185;41.506;24.938;2023-06-10T00:44:00;4.93;;;3.30;;
8293;SDS011;4185;41.506;24.938;2023-06-10T00:46:27;3.93;;;3.63;;
8293;SDS011;4185;41.506;24.938;2023-06-10T00:48:54;4.10;;;3.63;;
8293;SDS011;4185;41.506;24.938;2023-06-10T00:51:21;4.73;;;3.67;;
8293;SDS011;4185;41.506;24.938;2023-06-10T00:53:48;4.13;;;3.73;;
8293;SDS011;4185;41.506;24.938;2023-06-10T00:56:15;3.73;;;3.37;;
8293;SDS011;4185;41.506;24.938;2023-06-10T00:58:44;4.10;;;3.70;;
8293;SDS011;4185;41.506;24.938;2023-06-10T01:01:11;4.37;;;3.70;;
8293;SDS011;4185;41.506;24.938;2023-06-10T01:03:38;6.10;;;3.50;;
8293;SDS011;4185;41.506;24.938;2023-06-10T01:06:06;5.13;;;3.93;;
8293;SDS011;4185;41.506;24.938;2023-06-10T01:08:45;4.20;;;3.63;;
8293;SDS011;4185;41.506;24.938;2023-06-10T01:11:17;5.17;;;3.47;;
8293;SDS011;4185;41.506;24.938;2023-06-10T01:13:51;4.70;;;3.77;;
8293;SDS011;4185;41.506;24.938;2023-06-10T01:16:22;3.73;;;3.43;;
8293;SDS011;4185;41.506;24.938;2023-06-10T01:18:50;7.40;;;3.40;;
8293;SDS011;4185;41.506;24.938;2023-06-10T01:21:20;4.80;;;3.73;;
8293;SDS011;4185;41.506;24.938;2023-06-10T01:23:50;4.27;;;3.43;;
8293;SDS011;4185;41.506;24.938;2023-06-10T01:26:18;5.13;;;3.80;;
8293;SDS011;4185;41.506;24.938;2023-06-10T01:28:49;4.80;;;3.43;;
8293;SDS011;4185;41.506;24.938;2023-06-10T01:31:23;3.80;;;3.50;;
8293;SDS011;4185;41.506;24.938;2023-06-10T01:33:59;4.57;;;3.53;;
8293;SDS011;4185;41.506;24.938;2023-06-10T01:36:28;4.27;;;3.83;;
8293;SDS011;4185;41.506;24.938;2023-06-10T01:38:56;3.97;;;3.40;;
8293;SDS011;4185;41.506;24.938;2023-06-10T01:41:25;4.13;;;3.40;;
8293;SDS011;4185;41.506;24.938;2023-06-10T01:43:53;4.87;;;3.70;;
8293;SDS011;4185;41.506;24.938;2023-06-10T01:46:20;4.37;;;3.67;;
8293;SDS011;4185;41.506;24.938;2023-06-10T01:48:48;4.20;;;3.80;;
8293;SDS011;4185;41.506;24.938;2023-06-10T01:51:14;3.70;;;3.40;;
8293;SDS011;4185;41.506;24.938;2023-06-10T01:53:43;6.00;;;3.83;;
8293;SDS011;4185;41.506;24.938;2023-06-10T01:56:09;6.40;;;4.07;;
8293;SDS011;4185;41.506;24.938;2023-06-10T01:58:41;4.00;;;3.60;;
8293;SDS011;4185;41.506;24.938;2023-06-10T02:01:09;5.10;;;4.00;;
8293;SDS011;4185;41.506;24.938;2023-06-10T02:03:35;4.77;;;3.90;;
8293;SDS011;4185;41.506;24.938;2023-06-10T02:06:02;4.10;;;3.70;;
8293;SDS011;4185;41.506;24.938;2023-06-10T02:08:29;4.80;;;3.93;;
8293;SDS011;4185;41.506;24.938;2023-06-10T02:10:57;5.20;;;3.83;;
8293;SDS011;4185;41.506;24.938;2023-06-10T02:13:24;4.73;;;3.57;;
8293;SDS011;4185;41.506;24.938;2023-06-10T02:15:51;5.43;;;3.97;;
8293;SDS011;4185;41.506;24.938;2023-06-10T02:18:19;4.80;;;4.30;;
8293;SDS011;4185;41.506;24.938;2023-06-10T02:20:46;4.93;;;4.20;;
8293;SDS011;4185;41.506;24.938;2023-06-10T02:23:13;4.03;;;3.63;;
8293;SDS011;4185;41.506;24.938;2023-06-10T02:25:40;5.77;;;3.97;;
8293;SDS011;4185;41.506;24.938;2023-06-10T02:28:08;4.67;;;3.73;;
8293;SDS011;4185;41.506;24.938;2023-06-10T02:30:38;4.97;;;4.00;;
8293;SDS011;4185;41.506;24.938;2023-06-10T02:33:06;4.87;;;3.53;;
8293;SDS011;4185;41.506;24.938;2023-06-10T02:35:35;6.33;;;4.43;;
8293;SDS011;4185;41.506;24.938;2023-06-10T02:38:02;4.90;;;3.63;;
8293;SDS011;4185;41.506;24.938;2023-06-10T02:40:29;6.60;;;3.90;;
8293;SDS011;4185;41.506;24.938;2023-06-10T02:42:55;5.43;;;3.70;;
8293;SDS011;4185;41.506;24.938;2023-06-10T02:45:24;4.73;;;4.20;;
8293;SDS011;4185;41.506;24.938;2023-06-10T02:47:50;5.50;;;3.70;;
8293;SDS011;4185;41.506;24.938;2023-06-10T02:50:17;6.33;;;4.17;;
8293;SDS011;4185;41.506;24.938;2023-06-10T02:52:44;4.33;;;3.53;;
8293;SDS011;4185;41.506;24.938;2023-06-10T02:55:11;4.70;;;3.53;;
8293;SDS011;4185;41.506;24.938;2023-06-10T02:57:38;5.93;;;4.30;;
8293;SDS011;4185;41.506;24.938;2023-06-10T03:00:05;4.17;;;3.67;;
8293;SDS011;4185;41.506;24.938;2023-06-10T03:02:36;6.27;;;4.53;;
8293;SDS011;4185;41.506;24.938;2023-06-10T03:05:04;7.43;;;4.90;;
8293;SDS011;4185;41.506;24.938;2023-06-10T03:07:34;5.83;;;5.00;;
8293;SDS011;4185;41.506;24.938;2023-06-10T03:10:00;6.63;;;5.30;;
8293;SDS011;4185;41.506;24.938;2023-06-10T03:12:27;6.77;;;4.77;;
8293;SDS011;4185;41.506;24.938;2023-06-10T03:14:54;5.27;;;4.77;;
8293;SDS011;4185;41.506;24.938;2023-06-10T03:17:21;5.80;;;4.60;;
8293;SDS011;4185;41.506;24.938;2023-06-10T03:19:49;5.37;;;4.33;;
8293;SDS011;4185;41.506;24.938;2023-06-10T03:22:16;5.33;;;4.07;;
8293;SDS011;4185;41.506;24.938;2023-06-10T03:24:42;4.80;;;4.27;;
8293;SDS011;4185;41.506;24.938;2023-06-10T03:27:11;5.57;;;4.97;;
8293;SDS011;4185;41.506;24.938;2023-06-10T03:29:40;5.73;;;4.17;;
8293;SDS011;4185;41.506;24.938;2023-06-10T03:32:07;6.23;;;5.10;;
8293;SDS011;4185;41.506;24.938;2023-06-10T03:34:34;5.30;;;4.40;;
8293;SDS011;4185;41.506;24.938;2023-06-10T03:37:02;7.30;;;4.40;;
8293;SDS011;4185;41.506;24.938;2023-06-10T03:39:29;6.97;;;4.70;;
8293;SDS011;4185;41.506;24.938;2023-06-10T03:41:56;6.23;;;5.13;;
8293;SDS011;4185;41.506;24.938;2023-06-10T03:44:23;6.37;;;4.80;;
8293;SDS011;4185;41.506;24.938;2023-06-10T03:46:51;7.53;;;5.50;;
8293;SDS011;4185;41.506;24.938;2023-06-10T03:49:18;8.77;;;5.30;;
8293;SDS011;4185;41.506;24.938;2023-06-10T03:51:44;8.70;;;6.37;;
8293;SDS011;4185;41.506;24.938;2023-06-10T03:54:13;6.60;;;5.20;;
8293;SDS011;4185;41.506;24.938;2023-06-10T03:56:39;6.53;;;5.23;;
8293;SDS011;4185;41.506;24.938;2023-06-10T03:59:06;7.63;;;4.97;;
8293;SDS011;4185;41.506;24.938;2023-06-10T04:01:33;6.90;;;4.43;;
8293;SDS011;4185;41.506;24.938;2023-06-10T04:04:02;6.10;;;4.93;;
8293;SDS011;4185;41.506;24.938;2023-06-10T04:06:29;5.87;;;4.93;;
8293;SDS011;4185;41.506;24.938;2023-06-10T04:08:56;7.03;;;5.20;;
8293;SDS011;4185;41.506;24.938;2023-06-10T04:11:25;6.30;;;4.63;;
8293;SDS011;4185;41.506;24.938;2023-06-10T04:13:51;5.87;;;4.93;;
8293;SDS011;4185;41.506;24.938;2023-06-10T04:16:18;7.00;;;4.97;;
8293;SDS011;4185;41.506;24.938;2023-06-10T04:18:46;7.20;;;5.17;;
8293;SDS011;4185;41.506;24.938;2023-06-10T04:21:13;6.50;;;5.10;;
8293;SDS011;4185;41.506;24.938;2023-06-10T04:23:39;7.60;;;5.57;;
8293;SDS011;4185;41.506;24.938;2023-06-10T04:26:07;7.70;;;4.87;;
8293;SDS011;4185;41.506;24.938;2023-06-10T04:28:35;6.60;;;5.00;;
8293;SDS011;4185;41.506;24.938;2023-06-10T04:31:02;5.83;;;5.03;;
8293;SDS011;4185;41.506;24.938;2023-06-10T04:33:29;8.13;;;5.10;;
8293;SDS011;4185;41.506;24.938;2023-06-10T04:35:56;5.60;;;5.00;;
8293;SDS011;4185;41.506;24.938;2023-06-10T04:38:23;6.93;;;4.90;;
8293;SDS011;4185;41.506;24.938;2023-06-10T04:40:50;6.73;;;5.67;;
8293;SDS011;4185;41.506;24.938;2023-06-10T04:43:17;6.03;;;5.07;;
8293;SDS011;4185;41.506;24.938;2023-06-10T04:45:45;7.27;;;5.13;;
8293;SDS011;4185;41.506;24.938;2023-06-10T04:48:12;6.40;;;5.20;;
8293;SDS011;4185;41.506;24.938;2023-06-10T04:50:39;6.00;;;5.20;;
8293;SDS011;4185;41.506;24.938;2023-06-10T04:53:05;6.20;;;5.30;;
8293;SDS011;4185;41.506;24.938;2023-06-10T04:55:32;6.90;;;5.67;;
8293;SDS011;4185;41.506;24.938;2023-06-10T04:57:59;6.80;;;5.03;;
8293;SDS011;4185;41.506;24.938;2023-06-10T05:00:26;5.40;;;4.87;;
8293;SDS011;4185;41.506;24.938;2023-06-10T05:02:54;5.93;;;5.27;;
8293;SDS011;4185;41.506;24.938;2023-06-10T05:05:21;4.97;;;4.40;;
8293;SDS011;4185;41.506;24.938;2023-06-10T05:07:48;7.20;;;5.07;;
8293;SDS011;4185;41.506;24.938;2023-06-10T05:10:15;6.00;;;5.00;;
8293;SDS011;4185;41.506;24.938;2023-06-10T05:12:41;6.40;;;5.00;;
8293;SDS011;4185;41.506;24.938;2023-06-10T05:15:09;6.10;;;5.43;;
8293;SDS011;4185;41.506;24.938;2023-06-10T05:17:36;6.80;;;5.03;;
8293;SDS011;4185;41.506;24.938;2023-06-10T05:20:05;5.33;;;4.80;;
8293;SDS011;4185;41.506;24.938;2023-06-10T05:22:33;7.43;;;5.17;;
8293;SDS011;4185;41.506;24.938;2023-06-10T05:25:00;6.07;;;5.27;;
8293;SDS011;4185;41.506;24.938;2023-06-10T05:27:28;5.50;;;5.00;;
8293;SDS011;4185;41.506;24.938;2023-06-10T05:29:54;5.13;;;4.60;;
8293;SDS011;4185;41.506;24.938;2023-06-10T05:32:21;6.53;;;4.67;;
8293;SDS011;4185;41.506;24.938;2023-06-10T05:34:48;6.90;;;4.80;;
8293;SDS011;4185;41.506;24.938;2023-06-10T05:37:16;4.87;;;4.37;;
8293;SDS011;4185;41.506;24.938;2023-06-10T05:39:43;5.00;;;4.50;;
8293;SDS011;4185;41.506;24.938;2023-06-10T05:42:09;8.33;;;5.20;;
8293;SDS011;4185;41.506;24.938;2023-06-10T05:44:36;5.43;;;4.87;;
8293;SDS011;4185;41.506;24.938;2023-06-10T05:47:03;5.60;;;4.57;;
8293;SDS011;4185;41.506;24.938;2023-06-10T05:49:30;6.97;;;5.20;;
8293;SDS011;4185;41.506;24.938;2023-06-10T05:51:57;5.93;;;5.03;;
8293;SDS011;4185;41.506;24.938;2023-06-10T05:54:25;6.47;;;4.87;;
8293;SDS011;4185;41.506;24.938;2023-06-10T05:56:52;7.07;;;4.83;;
8293;SDS011;4185;41.506;24.938;2023-06-10T05:59:19;5.27;;;4.77;;
8293;SDS011;4185;41.506;24.938;2023-06-10T06:01:48;6.07;;;4.80;;
8293;SDS011;4185;41.506;24.938;2023-06-10T06:04:15;6.00;;;4.93;;
8293;SDS011;4185;41.506;24.938;2023-06-10T06:06:42;6.17;;;4.50;;
8293;SDS011;4185;41.506;24.938;2023-06-10T06:09:08;6.37;;;5.73;;
8293;SDS011;4185;41.506;24.938;2023-06-10T06:11:37;5.30;;;4.80;;
8293;SDS011;4185;41.506;24.938;2023-06-10T06:14:03;5.30;;;4.80;;
8293;SDS011;4185;41.506;24.938;2023-06-10T06:16:30;4.67;;;4.27;;
8293;SDS011;4185;41.506;24.938;2023-06-10T06:18:58;4.77;;;4.17;;
8293;SDS011;4185;41.506;24.938;2023-06-10T06:21:25;7.10;;;5.03;;
8293;SDS011;4185;41.506;24.938;2023-06-10T06:23:51;6.00;;;5.27;;
8293;SDS011;4185;41.506;24.938;2023-06-10T06:26:18;5.30;;;4.63;;
8293;SDS011;4185;41.506;24.938;2023-06-10T06:28:47;5.90;;;4.40;;
8293;SDS011;4185;41.506;24.938;2023-06-10T06:31:13;4.83;;;4.37;;
8293;SDS011;4185;41.506;24.938;2023-06-10T06:33:40;5.37;;;4.00;;
8293;SDS011;4185;41.506;24.938;2023-06-10T06:36:07;6.13;;;4.90;;
8293;SDS011;4185;41.506;24.938;2023-06-10T06:38:34;4.77;;;4.27;;
8293;SDS011;4185;41.506;24.938;2023-06-10T06:41:00;5.50;;;4.47;;
8293;SDS011;4185;41.506;24.938;2023-06-10T06:43:30;4.70;;;4.17;;
8293;SDS011;4185;41.506;24.938;2023-06-10T06:45:59;4.67;;;4.17;;
8293;SDS011;4185;41.506;24.938;2023-06-10T06:48:25;5.50;;;4.30;;
8293;SDS011;4185;41.506;24.938;2023-06-10T06:50:52;6.13;;;4.37;;
8293;SDS011;4185;41.506;24.938;2023-06-10T06:53:21;6.50;;;4.07;;
8293;SDS011;4185;41.506;24.938;2023-06-10T06:55:48;6.50;;;4.30;;
8293;SDS011;4185;41.506;24.938;2023-06-10T06:58:14;4.83;;;3.97;;
8293;SDS011;4185;41.506;24.938;2023-06-10T07:00:41;4.13;;;3.73;;
8293;SDS011;4185;41.506;24.938;2023-06-10T07:03:09;4.90;;;4.40;;
8293;SDS011;4185;41.506;24.938;2023-06-10T07:05:36;5.50;;;4.43;;
8293;SDS011;4185;41.506;24.938;2023-06-10T07:08:04;4.80;;;4.30;;
8293;SDS011;4185;41.506;24.938;2023-06-10T07:10:31;5.07;;;3.93;;
8293;SDS011;4185;41.506;24.938;2023-06-10T07:12:57;6.13;;;4.60;;
8293;SDS011;4185;41.506;24.938;2023-06-10T07:15:25;4.60;;;4.20;;
8293;SDS011;4185;41.506;24.938;2023-06-10T07:17:51;6.27;;;3.90;;
8293;SDS011;4185;41.506;24.938;2023-06-10T07:20:19;4.97;;;3.90;;
8293;SDS011;4185;41.506;24.938;2023-06-10T07:22:46;5.23;;;3.73;;
8293;SDS011;4185;41.506;24.938;2023-06-10T07:25:13;4.97;;;3.80;;
8293;SDS011;4185;41.506;24.938;2023-06-10T07:27:40;5.97;;;3.90;;
8293;SDS011;4185;41.506;24.938;2023-06-10T07:30:08;6.43;;;4.07;;
8293;SDS011;4185;41.506;24.938;2023-06-10T07:32:36;4.60;;;3.80;;
8293;SDS011;4185;41.506;24.938;2023-06-10T07:35:03;5.87;;;3.47;;
8293;SDS011;4185;41.506;24.938;2023-06-10T07:37:33;4.60;;;3.73;;
8293;SDS011;4185;41.506;24.938;2023-06-10T07:40:00;4.37;;;3.63;;
8293;SDS011;4185;41.506;24.938;2023-06-10T07:42:27;4.60;;;4.07;;
8293;SDS011;4185;41.506;24.938;2023-06-10T07:44:54;5.23;;;3.83;;
8293;SDS011;4185;41.506;24.938;2023-06-10T07:47:20;3.77;;;3.20;;
8293;SDS011;4185;41.506;24.938;2023-06-10T07:49:47;4.00;;;3.60;;
8293;SDS011;4185;41.506;24.938;2023-06-10T07:52:14;5.30;;;3.90;;
8293;SDS011;4185;41.506;24.938;2023-06-10T07:54:42;4.60;;;3.93;;
8293;SDS011;4185;41.506;24.938;2023-06-10T07:57:08;4.87;;;3.80;;
8293;SDS011;4185;41.506;24.938;2023-06-10T07:59:35;6.33;;;3.40;;
8293;SDS011;4185;41.506;24.938;2023-06-10T08:02:02;4.77;;;3.40;;
8293;SDS011;4185;41.506;24.938;2023-06-10T08:04:29;5.93;;;3.97;;
8293;SDS011;4185;41.506;24.938;2023-06-10T08:06:56;4.67;;;3.50;;
8293;SDS011;4185;41.506;24.938;2023-06-10T08:09:23;5.40;;;3.90;;
8293;SDS011;4185;41.506;24.938;2023-06-10T08:11:51;5.53;;;3.87;;
8293;SDS011;4185;41.506;24.938;2023-06-10T08:14:18;6.27;;;3.97;;
8293;SDS011;4185;41.506;24.938;2023-06-10T08:16:44;5.10;;;3.60;;
8293;SDS011;4185;41.506;24.938;2023-06-10T08:19:11;4.60;;;3.30;;
8293;SDS011;4185;41.506;24.938;2023-06-10T08:21:38;7.53;;;3.70;;
8293;SDS011;4185;41.506;24.938;2023-06-10T08:24:05;4.90;;;3.90;;
8293;SDS011;4185;41.506;24.938;2023-06-10T08:26:32;4.63;;;3.83;;
8293;SDS011;4185;41.506;24.938;2023-06-10T08:29:00;4.30;;;3.37;;
8293;SDS011;4185;41.506;24.938;2023-06-10T08:31:27;4.10;;;3.50;;
8293;SDS011;4185;41.506;24.938;2023-06-10T08:33:54;4.40;;;3.70;;
8293;SDS011;4185;41.506;24.938;2023-06-10T08:36:20;4.23;;;3.57;;
8293;SDS011;4185;41.506;24.938;2023-06-10T08:38:47;4.53;;;3.53;;
8293;SDS011;4185;41.506;24.938;2023-06-10T08:41:14;7.50;;;3.93;;
8293;SDS011;4185;41.506;24.938;2023-06-10T08:43:46;5.00;;;3.63;;
8293;SDS011;4185;41.506;24.938;2023-06-10T08:46:21;4.00;;;3.63;;
8293;SDS011;4185;41.506;24.938;2023-06-10T08:48:48;5.10;;;3.67;;
8293;SDS011;4185;41.506;24.938;2023-06-10T08:51:17;5.60;;;4.03;;
8293;SDS011;4185;41.506;24.938;2023-06-10T08:53:46;4.77;;;4.13;;
8293;SDS011;4185;41.506;24.938;2023-06-10T08:56:16;5.67;;;3.77;;
8293;SDS011;4185;41.506;24.938;2023-06-10T08:58:44;4.17;;;3.77;;
8293;SDS011;4185;41.506;24.938;2023-06-10T09:01:12;4.17;;;3.67;;
8293;SDS011;4185;41.506;24.938;2023-06-10T09:03:41;4.60;;;4.10;;
8293;SDS011;4185;41.506;24.938;2023-06-10T09:06:09;5.27;;;3.73;;
8293;SDS011;4185;41.506;24.938;2023-06-10T09:08:36;4.83;;;3.93;;
8293;SDS011;4185;41.506;24.938;2023-06-10T09:11:03;6.10;;;4.20;;
8293;SDS011;4185;41.506;24.938;2023-06-10T09:13:30;4.63;;;3.77;;
8293;SDS011;4185;41.506;24.938;2023-06-10T09:15:57;6.20;;;4.00;;
8293;SDS011;4185;41.506;24.938;2023-06-10T09:18:26;4.90;;;4.37;;
8293;SDS011;4185;41.506;24.938;2023-06-10T09:20:54;7.60;;;4.30;;
8293;SDS011;4185;41.506;24.938;2023-06-10T09:23:21;4.90;;;3.83;;
8293;SDS011;4185;41.506;24.938;2023-06-10T09:25:55;4.30;;;3.77;;
8293;SDS011;4185;41.506;24.938;2023-06-10T09:28:23;9.67;;;4.20;;
8293;SDS011;4185;41.506;24.938;2023-06-10T09:30:50;5.70;;;4.17;;
8293;SDS011;4185;41.506;24.938;2023-06-10T09:33:28;4.83;;;4.03;;
8293;SDS011;4185;41.506;24.938;2023-06-10T09:35:56;3.97;;;3.50;;
8293;SDS011;4185;41.506;24.938;2023-06-10T09:38:29;4.83;;;3.60;;
8293;SDS011;4185;41.506;24.938;2023-06-10T09:40:57;4.83;;;3.90;;
8293;SDS011;4185;41.506;24.938;2023-06-10T09:43:23;6.37;;;4.17;;
8293;SDS011;4185;41.506;24.938;2023-06-10T09:46:05;6.20;;;4.17;;
8293;SDS011;4185;41.506;24.938;2023-06-10T09:48:34;5.77;;;3.93;;
8293;SDS011;4185;41.506;24.938;2023-06-10T09:51:03;5.07;;;3.87;;
8293;SDS011;4185;41.506;24.938;2023-06-10T09:53:35;4.80;;;3.90;;
8293;SDS011;4185;41.506;24.938;2023-06-10T09:56:02;4.67;;;4.10;;
8293;SDS011;4185;41.506;24.938;2023-06-10T09:58:36;8.53;;;4.07;;
8293;SDS011;4185;41.506;24.938;2023-06-10T10:01:04;5.57;;;4.50;;
8293;SDS011;4185;41.506;24.938;2023-06-10T10:03:31;4.70;;;3.93;;
8293;SDS011;4185;41.506;24.938;2023-06-10T10:05:58;4.63;;;3.77;;
8293;SDS011;4185;41.506;24.938;2023-06-10T10:08:27;4.67;;;4.13;;
8293;SDS011;4185;41.506;24.938;2023-06-10T10:10:54;6.77;;;4.70;;
8293;SDS011;4185;41.506;24.938;2023-06-10T10:13:24;5.20;;;4.13;;
8293;SDS011;4185;41.506;24.938;2023-06-10T10:15:53;4.97;;;4.47;;
8293;SDS011;4185;41.506;24.938;2023-06-10T10:18:21;4.97;;;4.47;;
8293;SDS011;4185;41.506;24.938;2023-06-10T10:20:55;5.73;;;4.67;;
8293;SDS011;4185;41.506;24.938;2023-06-10T10:23:29;4.77;;;4.10;;
8293;SDS011;4185;41.506;24.938;2023-06-10T10:26:00;6.97;;;4.80;;
8293;SDS011;4185;41.506;24.938;2023-06-10T10:28:33;5.00;;;3.77;;
8293;SDS011;4185;41.506;24.938;2023-06-10T10:31:05;5.27;;;3.80;;
8293;SDS011;4185;41.506;24.938;2023-06-10T10:33:36;4.43;;;4.03;;
8293;SDS011;4185;41.506;24.938;2023-06-10T10:36:10;5.97;;;4.00;;
8293;SDS011;4185;41.506;24.938;2023-06-10T10:38:38;4.40;;;4.00;;
8293;SDS011;4185;41.506;24.938;2023-06-10T10:41:05;4.23;;;3.83;;
8293;SDS011;4185;41.506;24.938;2023-06-10T10:43:33;4.57;;;3.97;;
8293;SDS011;4185;41.506;24.938;2023-06-10T10:46:00;4.40;;;4.00;;
8293;SDS011;4185;41.506;24.938;2023-06-10T10:48:32;3.60;;;3.30;;
8293;SDS011;4185;41.506;24.938;2023-06-10T10:51:03;5.33;;;4.50;;
8293;SDS011;4185;41.506;24.938;2023-06-10T10:53:30;6.20;;;4.20;;
8293;SDS011;4185;41.506;24.938;2023-06-10T10:56:01;5.20;;;4.23;;
8293;SDS011;4185;41.506;24.938;2023-06-10T10:58:32;4.90;;;3.90;;
8293;SDS011;4185;41.506;24.938;2023-06-10T11:00:59;4.87;;;4.10;;
8293;SDS011;4185;41.506;24.938;2023-06-10T11:03:27;5.90;;;4.43;;
8293;SDS011;4185;41.506;24.938;2023-06-10T11:05:56;6.10;;;4.57;;
8293;SDS011;4185;41.506;24.938;2023-06-10T11:11:20;5.67;;;4.40;;
8293;SDS011;4185;41.506;24.938;2023-06-10T11:14:06;6.33;;;4.97;;
8293;SDS011;4185;41.506;24.938;2023-06-10T11:16:38;5.17;;;4.63;;
8293;SDS011;4185;41.506;24.938;2023-06-10T11:19:07;5.30;;;4.80;;
8293;SDS011;4185;41.506;24.938;2023-06-10T11:21:37;6.47;;;4.90;;
8293;SDS011;4185;41.506;24.938;2023-06-10T11:24:24;6.77;;;5.30;;
8293;SDS011;4185;41.506;24.938;2023-06-10T11:26:52;6.83;;;4.70;;
8293;SDS011;4185;41.506;24.938;2023-06-10T11:29:19;5.33;;;4.67;;
8293;SDS011;4185;41.506;24.938;2023-06-10T11:31:48;9.40;;;5.30;;
8293;SDS011;4185;41.506;24.938;2023-06-10T11:34:21;6.63;;;5.33;;
8293;SDS011;4185;41.506;24.938;2023-06-10T11:36:52;7.33;;;5.10;;
8293;SDS011;4185;41.506;24.938;2023-06-10T11:39:20;7.27;;;4.90;;
8293;SDS011;4185;41.506;24.938;2023-06-10T11:41:48;6.33;;;4.57;;
8293;SDS011;4185;41.506;24.938;2023-06-10T11:44:19;8.03;;;4.87;;
8293;SDS011;4185;41.506;24.938;2023-06-10T11:46:47;8.67;;;5.40;;
8293;SDS011;4185;41.506;24.938;2023-06-10T11:49:15;6.47;;;5.17;;
8293;SDS011;4185;41.506;24.938;2023-06-10T11:51:42;5.50;;;4.97;;
8293;SDS011;4185;41.506;24.938;2023-06-10T11:54:14;6.63;;;5.43;;
8293;SDS011;4185;41.506;24.938;2023-06-10T11:56:41;6.60;;;5.00;;
8293;SDS011;4185;41.506;24.938;2023-06-10T11:59:08;9.83;;;5.20;;
8293;SDS011;4185;41.506;24.938;2023-06-10T12:01:36;6.73;;;4.63;;
8293;SDS011;4185;41.506;24.938;2023-06-10T12:04:05;5.90;;;5.27;;
8293;SDS011;4185;41.506;24.938;2023-06-10T12:06:40;6.97;;;6.10;;
8293;SDS011;4185;41.506;24.938;2023-06-10T12:09:13;11.40;;;5.67;;
8293;SDS011;4185;41.506;24.938;2023-06-10T12:11:50;8.20;;;5.57;;
8293;SDS011;4185;41.506;24.938;2023-06-10T12:17:21;7.43;;;5.77;;
8293;SDS011;4185;41.506;24.938;2023-06-10T12:19:49;9.93;;;5.47;;
8293;SDS011;4185;41.506;24.938;2023-06-10T12:22:15;8.90;;;5.60;;
8293;SDS011;4185;41.506;24.938;2023-06-10T12:24:44;7.57;;;5.77;;
8293;SDS011;4185;41.506;24.938;2023-06-10T12:27:11;8.60;;;6.27;;
8293;SDS011;4185;41.506;24.938;2023-06-10T12:29:39;7.67;;;6.37;;
8293;SDS011;4185;41.506;24.938;2023-06-10T12:32:06;7.77;;;5.63;;
8293;SDS011;4185;41.506;24.938;2023-06-10T12:34:35;8.57;;;5.70;;
8293;SDS011;4185;41.506;24.938;2023-06-10T12:37:04;6.07;;;5.47;;
8293;SDS011;4185;41.506;24.938;2023-06-10T12:39:32;7.00;;;5.63;;
8293;SDS011;4185;41.506;24.938;2023-06-10T12:41:59;6.20;;;5.30;;
8293;SDS011;4185;41.506;24.938;2023-06-10T12:44:33;8.57;;;5.47;;
8293;SDS011;4185;41.506;24.938;2023-06-10T12:47:01;7.83;;;5.83;;
8293;SDS011;4185;41.506;24.938;2023-06-10T12:49:35;6.07;;;5.17;;
8293;SDS011;4185;41.506;24.938;2023-06-10T12:52:01;6.63;;;5.50;;
8293;SDS011;4185;41.506;24.938;2023-06-10T12:54:28;7.40;;;5.57;;
8293;SDS011;4185;41.506;24.938;2023-06-10T12:56:55;6.37;;;5.77;;
8293;SDS011;4185;41.506;24.938;2023-06-10T12:59:22;8.27;;;6.53;;
8293;SDS011;4185;41.506;24.938;2023-06-10T13:01:52;8.63;;;5.70;;
8293;SDS011;4185;41.506;24.938;2023-06-10T13:04:19;6.73;;;4.90;;
8293;SDS011;4185;41.506;24.938;2023-06-10T13:06:48;7.80;;;5.60;;
8293;SDS011;4185;41.506;24.938;2023-06-10T13:09:15;7.70;;;5.93;;
8293;SDS011;4185;41.506;24.938;2023-06-10T13:11:41;8.00;;;6.03;;
8293;SDS011;4185;41.506;24.938;2023-06-10T13:14:10;8.03;;;5.97;;
8293;SDS011;4185;41.506;24.938;2023-06-10T13:16:37;6.33;;;5.67;;
8293;SDS011;4185;41.506;24.938;2023-06-10T13:19:04;10.10;;;6.67;;
8293;SDS011;4185;41.506;24.938;2023-06-10T13:21:31;6.93;;;6.23;;
8293;SDS011;4185;41.506;24.938;2023-06-10T13:24:00;11.13;;;6.57;;
8293;SDS011;4185;41.506;24.938;2023-06-10T13:26:27;8.87;;;6.10;;
8293;SDS011;4185;41.506;24.938;2023-06-10T13:28:54;8.13;;;6.27;;
8293;SDS011;4185;41.506;24.938;2023-06-10T13:31:21;8.27;;;6.70;;
8293;SDS011;4185;41.506;24.938;2023-06-10T13:33:47;6.97;;;6.27;;
8293;SDS011;4185;41.506;24.938;2023-06-10T13:36:14;8.83;;;6.00;;
8293;SDS011;4185;41.506;24.938;2023-06-10T13:38:41;8.70;;;6.43;;
8293;SDS011;4185;41.506;24.938;2023-06-10T13:41:09;7.57;;;6.77;;
8293;SDS011;4185;41.506;24.938;2023-06-10T13:43:37;9.43;;;6.57;;
8293;SDS011;4185;41.506;24.938;2023-06-10T13:46:04;8.50;;;5.70;;
8293;SDS011;4185;41.506;24.938;2023-06-10T13:48:31;7.83;;;5.80;;
8293;SDS011;4185;41.506;24.938;2023-06-10T13:50:58;9.10;;;6.27;;
8293;SDS011;4185;41.506;24.938;2023-06-10T13:53:25;6.03;;;5.47;;
8293;SDS011;4185;41.506;24.938;2023-06-10T13:55:52;7.67;;;6.17;;
8293;SDS011;4185;41.506;24.938;2023-06-10T13:58:20;6.13;;;5.53;;
8293;SDS011;4185;41.506;24.938;2023-06-10T14:00:46;7.17;;;5.90;;
8293;SDS011;4185;41.506;24.938;2023-06-10T14:03:13;6.87;;;5.70;;
8293;SDS011;4185;41.506;24.938;2023-06-10T14:05:40;6.50;;;5.40;;
8293;SDS011;4185;41.506;24.938;2023-06-10T14:08:07;6.03;;;5.20;;
8293;SDS011;4185;41.506;24.938;2023-06-10T14:10:34;6.37;;;5.03;;
8293;SDS011;4185;41.506;24.938;2023-06-10T14:13:01;6.87;;;5.73;;
8293;SDS011;4185;41.506;24.938;2023-06-10T14:15:29;7.40;;;5.90;;
8293;SDS011;4185;41.506;24.938;2023-06-10T14:17:57;6.77;;;6.07;;
8293;SDS011;4185;41.506;24.938;2023-06-10T14:20:24;6.77;;;5.50;;
8293;SDS011;4185;41.506;24.938;2023-06-10T14:22:51;6.40;;;5.40;;
8293;SDS011;4185;41.506;24.938;2023-06-10T14:25:18;6.90;;;5.07;;
8293;SDS011;4185;41.506;24.938;2023-06-10T14:27:45;5.90;;;5.30;;
8293;SDS011;4185;41.506;24.938;2023-06-10T14:30:12;6.30;;;5.20;;
8293;SDS011;4185;41.506;24.938;2023-06-10T14:32:41;8.60;;;5.00;;
8293;SDS011;4185;41.506;24.938;2023-06-10T14:35:08;6.77;;;5.10;;
8293;SDS011;4185;41.506;24.938;2023-06-10T14:37:35;7.00;;;5.33;;
8293;SDS011;4185;41.506;24.938;2023-06-10T14:40:02;6.63;;;5.67;;
8293;SDS011;4185;41.506;24.938;2023-06-10T14:42:29;7.73;;;6.03;;
8293;SDS011;4185;41.506;24.938;2023-06-10T14:44:57;6.53;;;5.40;;
8293;SDS011;4185;41.506;24.938;2023-06-10T14:47:23;6.40;;;5.43;;
8293;SDS011;4185;41.506;24.938;2023-06-10T14:49:52;8.60;;;5.30;;
8293;SDS011;4185;41.506;24.938;2023-06-10T14:52:19;5.97;;;5.20;;
8293;SDS011;4185;41.506;24.938;2023-06-10T14:54:45;5.57;;;4.97;;
8293;SDS011;4185;41.506;24.938;2023-06-10T14:57:12;6.03;;;5.40;;
8293;SDS011;4185;41.506;24.938;2023-06-10T14:59:39;5.77;;;5.20;;
8293;SDS011;4185;41.506;24.938;2023-06-10T15:02:06;5.57;;;5.07;;
8293;SDS011;4185;41.506;24.938;2023-06-10T15:04:33;6.60;;;5.73;;
8293;SDS011;4185;41.506;24.938;2023-06-10T15:07:01;7.93;;;5.77;;
8293;SDS011;4185;41.506;24.938;2023-06-10T15:09:28;6.57;;;5.70;;
8293;SDS011;4185;41.506;24.938;2023-06-10T15:11:54;6.40;;;5.80;;